Thunder radar more information blitzortung!


Radar de pluja more information rain snow radar


Visita la nostra xarxa de llocs de meteo:

Template documentation
and downloads

And another site



No particular awareness of the weather is required.    There are no Weather-warnings

Pagina Historial Weather Underground text

Diari Resum January 9, 2018 Unitats:  Tant    Imperial   Mètric
« Previous Dia
SegĂźent Dia »
Diari Setmana Mensual Anual Personalitzada
  Maxima: Minima: Media:
Temperatura: TemperatureC °F /  -17.8 °C 2.6 °F /  -16.3 °C 9.8 °F /  -12.3 °C
Punt de rosada: DewpointC °F /  -17.8 °C -2.4 °F /  -19.1 °C 1 °F /  -17.2 °C
Humitat: Humidity % 48 % 55 %
Wind Speed: WindSpeedKMH mph /  0 km/h - 6.5 mph /  10.5 km/h
RĂ fegues de vent: WindSpeedGustKMH mph /  0 km/h - -
Vent:- - SW
Pression baro: PressurehPa in /  0 hPa 1011.7 in /  34256.2 hPa -
Precipitacions: 0.0 in /  0 mm    
Historical Graphs
 
 
Dades de taula per January 9, 2018
Temps Temperatura Punt de rosada Pression baro Vent Wind Speed RĂ fegues de vent Humitat Rainfall Rate (Hourly)
TemperatureC °F /  -17.8 °C DewpointC °F /  -17.8 °C PressurehPa in /  0 hPa Calm     Humidity % HourlyPrecipMM in /  0 mm
00:03 4.9 °F /  -15.1 °C 0.8 °F /  -17.3 °C 1011.7 in /  34256.2 hPa West 9.3 mph /  15 km/h 9.3 mph /  15 km/h 75 % 0.0 in /  0 mm
00:04 4.9 °F /  -15.1 °C 0.8 °F /  -17.3 °C 1011.7 in /  34256.2 hPa West 5.6 mph /  9 km/h 5.6 mph /  9 km/h 75 % 0.0 in /  0 mm
00:05 5.0 °F /  -15 °C 0.9 °F /  -17.3 °C 1011.7 in /  34256.2 hPa WSW 4.7 mph /  7.6 km/h 4.7 mph /  7.6 km/h 75 % 0.0 in /  0 mm
00:25 3.3 °F /  -15.9 °C -0.9 °F /  -18.3 °C 1013.8 in /  34327.3 hPa WSW 4.8 mph /  7.7 km/h 4.8 mph /  7.7 km/h 74 % 0.0 in /  0 mm
00:35 3.0 °F /  -16.1 °C -1.2 °F /  -18.4 °C 1012.8 in /  34293.4 hPa WSW 3.2 mph /  5.1 km/h 4.8 mph /  7.7 km/h 74 % 0.0 in /  0 mm
00:45 3.1 °F /  -16.1 °C -1.1 °F /  -18.4 °C 1012.8 in /  34293.4 hPa WSW 4.8 mph /  7.7 km/h 4.8 mph /  7.7 km/h 74 % 0.0 in /  0 mm
00:55 3.2 °F /  -16 °C -1.0 °F /  -18.3 °C 1013.8 in /  34327.3 hPa WSW 1.6 mph /  2.6 km/h 4.8 mph /  7.7 km/h 74 % 0.0 in /  0 mm
01:15 2.6 °F /  -16.3 °C -1.6 °F /  -18.7 °C 1013.8 in /  34327.3 hPa WSW 3.2 mph /  5.1 km/h 4.8 mph /  7.7 km/h 74 % 0.0 in /  0 mm
01:25 2.7 °F /  -16.3 °C -1.5 °F /  -18.6 °C 1014.8 in /  34361.1 hPa WSW 1.6 mph /  2.6 km/h 3.2 mph /  5.1 km/h 74 % 0.0 in /  0 mm
01:45 2.9 °F /  -16.2 °C -1.1 °F /  -18.4 °C 1014.8 in /  34361.1 hPa WSW 1.6 mph /  2.6 km/h 4.8 mph /  7.7 km/h 75 % 0.0 in /  0 mm
01:55 2.7 °F /  -16.3 °C -1.3 °F /  -18.5 °C 1014.8 in /  34361.1 hPa Calm   1.6 mph /  2.6 km/h 75 % 0.0 in /  0 mm
02:15 2.8 °F /  -16.2 °C -1.2 °F /  -18.4 °C 1015.8 in /  34395 hPa WSW 3.2 mph /  5.1 km/h 4.8 mph /  7.7 km/h 75 % 0.0 in /  0 mm
02:25 2.9 °F /  -16.2 °C -1.1 °F /  -18.4 °C 1015.8 in /  34395 hPa Calm   3.2 mph /  5.1 km/h 75 % 0.0 in /  0 mm
02:45 2.9 °F /  -16.2 °C -1.1 °F /  -18.4 °C 1015.8 in /  34395 hPa Calm   3.2 mph /  5.1 km/h 75 % 0.0 in /  0 mm
10:48 6.7 °F /  -14.1 °C 0.8 °F /  -17.3 °C 1017.8 in /  34462.7 hPa ENE 3.7 mph /  6 km/h 3.7 mph /  6 km/h 66 % 0.0 in /  0 mm
10:49 6.7 °F /  -14.1 °C 0.8 °F /  -17.3 °C 1017.8 in /  34462.7 hPa ENE 3.7 mph /  6 km/h 3.7 mph /  6 km/h 66 % 0.0 in /  0 mm
10:50 6.8 °F /  -14 °C 0.9 °F /  -17.3 °C 1017.8 in /  34462.7 hPa ENE 1.9 mph /  3.1 km/h   66 % 0.0 in /  0 mm
10:51 6.8 °F /  -14 °C 0.9 °F /  -17.3 °C 1017.8 in /  34462.7 hPa NNW 1.9 mph /  3.1 km/h   66 % 0.0 in /  0 mm
10:52 6.9 °F /  -13.9 °C 1.2 °F /  -17.1 °C 1017.8 in /  34462.7 hPa NW 3.7 mph /  6 km/h 3.7 mph /  6 km/h 67 % 0.0 in /  0 mm
10:53 7.0 °F /  -13.9 °C 1.3 °F /  -17.1 °C 1017.8 in /  34462.7 hPa NNW 3.7 mph /  6 km/h 3.7 mph /  6 km/h 67 % 0.0 in /  0 mm
10:54 7.1 °F /  -13.8 °C 1.4 °F /  -17 °C 1017.8 in /  34462.7 hPa NNW 1.9 mph /  3.1 km/h 1.9 mph /  3.1 km/h 67 % 0.0 in /  0 mm
10:55 7.2 °F /  -13.8 °C 1.5 °F /  -16.9 °C 1017.8 in /  34462.7 hPa West 3.5 mph /  5.6 km/h   67 % 0.0 in /  0 mm
10:56 7.2 °F /  -13.8 °C 1.5 °F /  -16.9 °C 1017.8 in /  34462.7 hPa West 3.7 mph /  6 km/h 3.7 mph /  6 km/h 67 % 0.0 in /  0 mm
10:57 7.2 °F /  -13.8 °C 1.5 °F /  -16.9 °C 1017.8 in /  34462.7 hPa West 3.7 mph /  6 km/h 3.7 mph /  6 km/h 67 % 0.0 in /  0 mm
10:58 7.3 °F /  -13.7 °C 1.6 °F /  -16.9 °C 1017.8 in /  34462.7 hPa SW 3.7 mph /  6 km/h 3.7 mph /  6 km/h 67 % 0.0 in /  0 mm
10:59 7.4 °F /  -13.7 °C 1.7 °F /  -16.8 °C 1017.8 in /  34462.7 hPa SW 3.7 mph /  6 km/h 3.7 mph /  6 km/h 67 % 0.0 in /  0 mm
11:00 7.4 °F /  -13.7 °C 1.7 °F /  -16.8 °C 1017.8 in /  34462.7 hPa SW 3.7 mph /  6 km/h 3.7 mph /  6 km/h 67 % 0.0 in /  0 mm
11:01 7.6 °F /  -13.6 °C 1.7 °F /  -16.8 °C 1017.8 in /  34462.7 hPa SW 3.7 mph /  6 km/h   66 % 0.0 in /  0 mm
11:02 7.7 °F /  -13.5 °C 1.7 °F /  -16.8 °C 1017.8 in /  34462.7 hPa SW 3.7 mph /  6 km/h 3.7 mph /  6 km/h 66 % 0.0 in /  0 mm
11:03 7.8 °F /  -13.4 °C 1.8 °F /  -16.8 °C 1017.8 in /  34462.7 hPa SW 3.7 mph /  6 km/h 3.7 mph /  6 km/h 66 % 0.0 in /  0 mm
11:04 7.8 °F /  -13.4 °C 1.8 °F /  -16.8 °C 1017.8 in /  34462.7 hPa WNW 3.7 mph /  6 km/h   66 % 0.0 in /  0 mm
11:05 7.8 °F /  -13.4 °C 1.8 °F /  -16.8 °C 1017.8 in /  34462.7 hPa NNW 2.6 mph /  4.2 km/h 2.6 mph /  4.2 km/h 66 % 0.0 in /  0 mm
11:06 7.8 °F /  -13.4 °C 1.6 °F /  -16.9 °C 1017.8 in /  34462.7 hPa North 1.9 mph /  3.1 km/h 2.3 mph /  3.7 km/h 65 % 0.0 in /  0 mm
11:07 7.8 °F /  -13.4 °C 1.6 °F /  -16.9 °C 1017.8 in /  34462.7 hPa NNE 2.3 mph /  3.7 km/h 2.3 mph /  3.7 km/h 65 % 0.0 in /  0 mm
11:08 7.8 °F /  -13.4 °C 1.6 °F /  -16.9 °C 1017.8 in /  34462.7 hPa NNE 2.6 mph /  4.2 km/h 2.6 mph /  4.2 km/h 65 % 0.0 in /  0 mm
11:09 7.8 °F /  -13.4 °C 1.6 °F /  -16.9 °C 1017.8 in /  34462.7 hPa NNE 3.7 mph /  6 km/h 3.7 mph /  6 km/h 65 % 0.0 in /  0 mm
11:10 7.9 °F /  -13.4 °C 1.7 °F /  -16.8 °C 1017.8 in /  34462.7 hPa NNE 1.9 mph /  3.1 km/h 1.9 mph /  3.1 km/h 65 % 0.0 in /  0 mm
11:11 8.0 °F /  -13.3 °C 1.8 °F /  -16.8 °C 1017.8 in /  34462.7 hPa NNE 1.9 mph /  3.1 km/h   65 % 0.0 in /  0 mm
11:12 8.1 °F /  -13.3 °C 1.9 °F /  -16.7 °C 1017.8 in /  34462.7 hPa East 3.7 mph /  6 km/h 3.7 mph /  6 km/h 65 % 0.0 in /  0 mm
11:13 8.2 °F /  -13.2 °C 2.0 °F /  -16.7 °C 1017.8 in /  34462.7 hPa East 3.7 mph /  6 km/h   65 % 0.0 in /  0 mm
11:14 8.2 °F /  -13.2 °C 2.0 °F /  -16.7 °C 1017.8 in /  34462.7 hPa East 3.7 mph /  6 km/h   65 % 0.0 in /  0 mm
11:16 8.4 °F /  -13.1 °C 2.2 °F /  -16.6 °C 1017.8 in /  34462.7 hPa ESE 1.9 mph /  3.1 km/h   65 % 0.0 in /  0 mm
11:17 8.5 °F /  -13.1 °C 2.3 °F /  -16.5 °C 1017.8 in /  34462.7 hPa ESE 1.9 mph /  3.1 km/h 1.9 mph /  3.1 km/h 65 % 0.0 in /  0 mm
11:18 8.6 °F /  -13 °C 2.4 °F /  -16.4 °C 1017.8 in /  34462.7 hPa NE 2.6 mph /  4.2 km/h 2.6 mph /  4.2 km/h 65 % 0.0 in /  0 mm
11:20 8.4 °F /  -13.1 °C 2.0 °F /  -16.7 °C 1017.8 in /  34462.7 hPa ENE 4.2 mph /  6.8 km/h 4.2 mph /  6.8 km/h 64 % 0.0 in /  0 mm
11:21 8.2 °F /  -13.2 °C 1.8 °F /  -16.8 °C 1017.8 in /  34462.7 hPa NE 3.7 mph /  6 km/h 4.2 mph /  6.8 km/h 64 % 0.0 in /  0 mm
11:22 8.1 °F /  -13.3 °C 1.7 °F /  -16.8 °C 1017.8 in /  34462.7 hPa NE 3.7 mph /  6 km/h 3.7 mph /  6 km/h 64 % 0.0 in /  0 mm
11:23 8.1 °F /  -13.3 °C 1.7 °F /  -16.8 °C 1017.8 in /  34462.7 hPa ENE 3.7 mph /  6 km/h 3.7 mph /  6 km/h 64 % 0.0 in /  0 mm
11:24 8.1 °F /  -13.3 °C 1.7 °F /  -16.8 °C 1017.8 in /  34462.7 hPa NE 3.7 mph /  6 km/h 3.7 mph /  6 km/h 64 % 0.0 in /  0 mm
11:25 8.1 °F /  -13.3 °C 1.7 °F /  -16.8 °C 1017.8 in /  34462.7 hPa ENE 1.6 mph /  2.6 km/h 4.8 mph /  7.7 km/h 64 % 0.0 in /  0 mm
11:27 7.9 °F /  -13.4 °C 1.3 °F /  -17.1 °C 1017.8 in /  34462.7 hPa ENE 5.6 mph /  9 km/h 5.6 mph /  9 km/h 63 % 0.0 in /  0 mm
11:28 7.9 °F /  -13.4 °C 1.3 °F /  -17.1 °C 1017.8 in /  34462.7 hPa ENE 3.7 mph /  6 km/h 3.7 mph /  6 km/h 63 % 0.0 in /  0 mm
11:29 7.9 °F /  -13.4 °C 1.5 °F /  -16.9 °C 1017.8 in /  34462.7 hPa NE 5.3 mph /  8.5 km/h 5.3 mph /  8.5 km/h 64 % 0.0 in /  0 mm
11:30 7.9 °F /  -13.4 °C 1.3 °F /  -17.1 °C 1017.8 in /  34462.7 hPa NNE 5.6 mph /  9 km/h 5.6 mph /  9 km/h 63 % 0.0 in /  0 mm
11:31 7.9 °F /  -13.4 °C 1.5 °F /  -16.9 °C 1017.8 in /  34462.7 hPa NE 3.7 mph /  6 km/h 3.7 mph /  6 km/h 64 % 0.0 in /  0 mm
11:32 8.0 °F /  -13.3 °C 1.6 °F /  -16.9 °C 1017.8 in /  34462.7 hPa NNE 4.2 mph /  6.8 km/h 4.2 mph /  6.8 km/h 64 % 0.0 in /  0 mm
11:33 8.0 °F /  -13.3 °C 1.6 °F /  -16.9 °C 1017.8 in /  34462.7 hPa NNE 4.7 mph /  7.6 km/h 4.7 mph /  7.6 km/h 64 % 0.0 in /  0 mm
11:36 8.0 °F /  -13.3 °C 1.4 °F /  -17 °C 1017.8 in /  34462.7 hPa NE 5.6 mph /  9 km/h 5.6 mph /  9 km/h 63 % 0.0 in /  0 mm
11:37 8.1 °F /  -13.3 °C 1.5 °F /  -16.9 °C 1017.8 in /  34462.7 hPa NE 3.7 mph /  6 km/h 3.7 mph /  6 km/h 63 % 0.0 in /  0 mm
11:38 8.1 °F /  -13.3 °C 1.5 °F /  -16.9 °C 1017.8 in /  34462.7 hPa NE 3.7 mph /  6 km/h 3.7 mph /  6 km/h 63 % 0.0 in /  0 mm
11:39 8.3 °F /  -13.2 °C 1.9 °F /  -16.7 °C 1017.8 in /  34462.7 hPa NE 1.9 mph /  3.1 km/h   64 % 0.0 in /  0 mm
11:44 8.4 °F /  -13.1 °C 2.0 °F /  -16.7 °C 1017.8 in /  34462.7 hPa NNW 3.7 mph /  6 km/h 3.7 mph /  6 km/h 64 % 0.0 in /  0 mm
11:45 8.4 °F /  -13.1 °C 2.0 °F /  -16.7 °C 1017.8 in /  34462.7 hPa NE 3.7 mph /  6 km/h 3.7 mph /  6 km/h 64 % 0.0 in /  0 mm
11:46 8.4 °F /  -13.1 °C 2.0 °F /  -16.7 °C 1017.8 in /  34462.7 hPa NE 3.7 mph /  6 km/h 3.7 mph /  6 km/h 64 % 0.0 in /  0 mm
11:50 8.4 °F /  -13.1 °C 2.0 °F /  -16.7 °C 1017.8 in /  34462.7 hPa NNE 5.6 mph /  9 km/h 5.6 mph /  9 km/h 64 % 0.0 in /  0 mm
11:53 8.7 °F /  -12.9 °C 2.3 °F /  -16.5 °C 1017.8 in /  34462.7 hPa NE 2.6 mph /  4.2 km/h 3.2 mph /  5.1 km/h 64 % 0.0 in /  0 mm
11:54 8.7 °F /  -12.9 °C 2.3 °F /  -16.5 °C 1017.8 in /  34462.7 hPa NE 5.6 mph /  9 km/h 5.6 mph /  9 km/h 64 % 0.0 in /  0 mm
11:55 8.8 °F /  -12.9 °C 2.3 °F /  -16.5 °C 1017.8 in /  34462.7 hPa NE 3.7 mph /  6 km/h 3.7 mph /  6 km/h 64 % 0.0 in /  0 mm
11:56 8.7 °F /  -12.9 °C 2.1 °F /  -16.6 °C 1017.8 in /  34462.7 hPa ENE 3.9 mph /  6.3 km/h 3.9 mph /  6.3 km/h 63 % 0.0 in /  0 mm
11:59 8.7 °F /  -12.9 °C 2.1 °F /  -16.6 °C 1017.8 in /  34462.7 hPa ENE 3.2 mph /  5.1 km/h 3.2 mph /  5.1 km/h 63 % 0.0 in /  0 mm
12:00 8.7 °F /  -12.9 °C 2.1 °F /  -16.6 °C 1017.8 in /  34462.7 hPa ENE 5.0 mph /  8 km/h 5.0 mph /  8 km/h 63 % 0.0 in /  0 mm
12:01 8.7 °F /  -12.9 °C 2.1 °F /  -16.6 °C 1017.8 in /  34462.7 hPa NNE 5.6 mph /  9 km/h 5.6 mph /  9 km/h 63 % 0.0 in /  0 mm
12:02 8.7 °F /  -12.9 °C 1.8 °F /  -16.8 °C 1017.8 in /  34462.7 hPa NE 5.6 mph /  9 km/h 5.6 mph /  9 km/h 62 % 0.0 in /  0 mm
12:03 8.7 °F /  -12.9 °C 1.8 °F /  -16.8 °C 1017.8 in /  34462.7 hPa NE 5.6 mph /  9 km/h 5.6 mph /  9 km/h 62 % 0.0 in /  0 mm
12:05 8.9 °F /  -12.8 °C 2.2 °F /  -16.6 °C 1017.8 in /  34462.7 hPa ENE 5.0 mph /  8 km/h 5.0 mph /  8 km/h 63 % 0.0 in /  0 mm
12:06 8.9 °F /  -12.8 °C 2.2 °F /  -16.6 °C 1017.8 in /  34462.7 hPa NNE 5.6 mph /  9 km/h 5.6 mph /  9 km/h 63 % 0.0 in /  0 mm
12:07 8.9 °F /  -12.8 °C 2.2 °F /  -16.6 °C 1017.8 in /  34462.7 hPa NNE 5.6 mph /  9 km/h 5.6 mph /  9 km/h 63 % 0.0 in /  0 mm
12:08 8.7 °F /  -12.9 °C 1.8 °F /  -16.8 °C 1017.8 in /  34462.7 hPa NNE 5.6 mph /  9 km/h 5.6 mph /  9 km/h 62 % 0.0 in /  0 mm
12:10 8.8 °F /  -12.9 °C 1.9 °F /  -16.7 °C 1017.8 in /  34462.7 hPa ENE 5.6 mph /  9 km/h 5.6 mph /  9 km/h 62 % 0.0 in /  0 mm
12:13 9.1 °F /  -12.7 °C 2.2 °F /  -16.6 °C 1017.8 in /  34462.7 hPa ESE 5.6 mph /  9 km/h 5.6 mph /  9 km/h 62 % 0.0 in /  0 mm
12:14 9.0 °F /  -12.8 °C 1.9 °F /  -16.7 °C 1017.8 in /  34462.7 hPa ENE 5.8 mph /  9.3 km/h 5.8 mph /  9.3 km/h 61 % 0.0 in /  0 mm
12:15 9.1 °F /  -12.7 °C 2.2 °F /  -16.6 °C 1017.8 in /  34462.7 hPa NE 3.2 mph /  5.1 km/h 6.4 mph /  10.3 km/h 62 % 0.0 in /  0 mm
12:16 9.1 °F /  -12.7 °C 2.2 °F /  -16.6 °C 1017.8 in /  34462.7 hPa East 5.6 mph /  9 km/h 5.6 mph /  9 km/h 62 % 0.0 in /  0 mm
12:17 9.2 °F /  -12.7 °C 2.3 °F /  -16.5 °C 1017.8 in /  34462.7 hPa East 2.3 mph /  3.7 km/h 2.3 mph /  3.7 km/h 62 % 0.0 in /  0 mm
12:18 9.2 °F /  -12.7 °C 2.1 °F /  -16.6 °C 1017.8 in /  34462.7 hPa ENE 6.9 mph /  11.1 km/h 6.9 mph /  11.1 km/h 61 % 0.0 in /  0 mm
12:20 9.1 °F /  -12.7 °C 2.2 °F /  -16.6 °C 1017.8 in /  34462.7 hPa NE 5.6 mph /  9 km/h 5.6 mph /  9 km/h 62 % 0.0 in /  0 mm
12:21 9.1 °F /  -12.7 °C 1.9 °F /  -16.7 °C 1017.8 in /  34462.7 hPa ESE 5.6 mph /  9 km/h 5.6 mph /  9 km/h 61 % 0.0 in /  0 mm
12:22 9.1 °F /  -12.7 °C 1.9 °F /  -16.7 °C 1017.8 in /  34462.7 hPa ENE 3.7 mph /  6 km/h 3.7 mph /  6 km/h 61 % 0.0 in /  0 mm
12:23 9.2 °F /  -12.7 °C 2.1 °F /  -16.6 °C 1017.8 in /  34462.7 hPa ENE 3.7 mph /  6 km/h 3.7 mph /  6 km/h 61 % 0.0 in /  0 mm
12:24 9.4 °F /  -12.6 °C 2.5 °F /  -16.4 °C 1017.8 in /  34462.7 hPa ESE 1.9 mph /  3.1 km/h 2.3 mph /  3.7 km/h 62 % 0.0 in /  0 mm
12:25 9.4 °F /  -12.6 °C 2.5 °F /  -16.4 °C 1017.8 in /  34462.7 hPa WSW 5.0 mph /  8 km/h 5.0 mph /  8 km/h 62 % 0.0 in /  0 mm
12:26 9.6 °F /  -12.4 °C 2.7 °F /  -16.3 °C 1017.8 in /  34462.7 hPa WNW 5.6 mph /  9 km/h 5.6 mph /  9 km/h 62 % 0.0 in /  0 mm
12:27 9.6 °F /  -12.4 °C 2.9 °F /  -16.2 °C 1017.8 in /  34462.7 hPa NNW 3.7 mph /  6 km/h 3.7 mph /  6 km/h 63 % 0.0 in /  0 mm
12:28 9.7 °F /  -12.4 °C 3.0 °F /  -16.1 °C 1017.8 in /  34462.7 hPa West 4.2 mph /  6.8 km/h 4.2 mph /  6.8 km/h 63 % 0.0 in /  0 mm
12:29 9.9 °F /  -12.3 °C 2.9 °F /  -16.2 °C 1017.8 in /  34462.7 hPa ENE 3.7 mph /  6 km/h 3.7 mph /  6 km/h 62 % 0.0 in /  0 mm
12:30 9.9 °F /  -12.3 °C 2.9 °F /  -16.2 °C 1017.8 in /  34462.7 hPa NNW 4.2 mph /  6.8 km/h 4.2 mph /  6.8 km/h 62 % 0.0 in /  0 mm
12:33 10.3 °F /  -12.1 °C 3.1 °F /  -16.1 °C 1017.8 in /  34462.7 hPa WSW 8.7 mph /  14 km/h 8.7 mph /  14 km/h 61 % 0.0 in /  0 mm
12:35 10.3 °F /  -12.1 °C 3.1 °F /  -16.1 °C 1017.8 in /  34462.7 hPa South 9.3 mph /  15 km/h 9.3 mph /  15 km/h 61 % 0.0 in /  0 mm
12:36 10.4 °F /  -12 °C 3.2 °F /  -16 °C 1017.8 in /  34462.7 hPa South 5.6 mph /  9 km/h 5.6 mph /  9 km/h 61 % 0.0 in /  0 mm
12:37 10.4 °F /  -12 °C 3.2 °F /  -16 °C 1017.8 in /  34462.7 hPa WNW 4.7 mph /  7.6 km/h 4.7 mph /  7.6 km/h 61 % 0.0 in /  0 mm
12:38 10.5 °F /  -11.9 °C 3.3 °F /  -15.9 °C 1017.8 in /  34462.7 hPa WSW 6.4 mph /  10.3 km/h 6.4 mph /  10.3 km/h 61 % 0.0 in /  0 mm
12:40 10.7 °F /  -11.8 °C 3.2 °F /  -16 °C 1017.8 in /  34462.7 hPa WNW 2.3 mph /  3.7 km/h 2.3 mph /  3.7 km/h 60 % 0.0 in /  0 mm
12:41 10.7 °F /  -11.8 °C 3.2 °F /  -16 °C 1017.8 in /  34462.7 hPa NW 3.7 mph /  6 km/h 3.7 mph /  6 km/h 60 % 0.0 in /  0 mm
12:43 10.6 °F /  -11.9 °C 3.4 °F /  -15.9 °C 1017.8 in /  34462.7 hPa WNW 7.4 mph /  11.9 km/h 7.4 mph /  11.9 km/h 61 % 0.0 in /  0 mm
12:44 10.6 °F /  -11.9 °C 3.2 °F /  -16 °C 1017.8 in /  34462.7 hPa WNW 7.4 mph /  11.9 km/h 7.4 mph /  11.9 km/h 60 % 0.0 in /  0 mm
12:45 10.8 °F /  -11.8 °C 3.3 °F /  -15.9 °C 1017.8 in /  34462.7 hPa SSW 3.7 mph /  6 km/h 3.7 mph /  6 km/h 60 % 0.0 in /  0 mm
12:46 10.8 °F /  -11.8 °C 3.3 °F /  -15.9 °C 1017.8 in /  34462.7 hPa WNW 3.7 mph /  6 km/h 3.7 mph /  6 km/h 60 % 0.0 in /  0 mm
12:47 10.9 °F /  -11.7 °C 3.4 °F /  -15.9 °C 1017.8 in /  34462.7 hPa WSW 8.7 mph /  14 km/h 8.7 mph /  14 km/h 60 % 0.0 in /  0 mm
12:48 10.9 °F /  -11.7 °C 3.4 °F /  -15.9 °C 1017.8 in /  34462.7 hPa WNW 9.3 mph /  15 km/h 9.3 mph /  15 km/h 60 % 0.0 in /  0 mm
12:49 10.9 °F /  -11.7 °C 3.4 °F /  -15.9 °C 1017.8 in /  34462.7 hPa WSW 5.8 mph /  9.3 km/h 5.8 mph /  9.3 km/h 60 % 0.0 in /  0 mm
12:52 10.9 °F /  -11.7 °C 3.2 °F /  -16 °C 1016.8 in /  34428.8 hPa West 13.0 mph /  20.9 km/h 13.0 mph /  20.9 km/h 59 % 0.0 in /  0 mm
12:53 10.8 °F /  -11.8 °C 2.8 °F /  -16.2 °C 1016.8 in /  34428.8 hPa West 13.0 mph /  20.9 km/h 13.0 mph /  20.9 km/h 58 % 0.0 in /  0 mm
12:54 10.9 °F /  -11.7 °C 2.9 °F /  -16.2 °C 1016.8 in /  34428.8 hPa West 7.4 mph /  11.9 km/h 7.4 mph /  11.9 km/h 58 % 0.0 in /  0 mm
12:55 10.9 °F /  -11.7 °C 2.9 °F /  -16.2 °C 1016.8 in /  34428.8 hPa WNW 13.0 mph /  20.9 km/h 13.0 mph /  20.9 km/h 58 % 0.0 in /  0 mm
12:56 10.9 °F /  -11.7 °C 2.9 °F /  -16.2 °C 1016.8 in /  34428.8 hPa WSW 13.0 mph /  20.9 km/h 13.0 mph /  20.9 km/h 58 % 0.0 in /  0 mm
12:57 10.9 °F /  -11.7 °C 2.7 °F /  -16.3 °C 1016.8 in /  34428.8 hPa WSW 11.1 mph /  17.9 km/h 11.1 mph /  17.9 km/h 57 % 0.0 in /  0 mm
12:58 10.9 °F /  -11.7 °C 2.7 °F /  -16.3 °C 1016.8 in /  34428.8 hPa WSW 5.6 mph /  9 km/h 5.6 mph /  9 km/h 57 % 0.0 in /  0 mm
13:00 11.0 °F /  -11.7 °C 2.8 °F /  -16.2 °C 1016.8 in /  34428.8 hPa WNW 7.4 mph /  11.9 km/h 7.4 mph /  11.9 km/h 57 % 0.0 in /  0 mm
13:01 10.9 °F /  -11.7 °C 2.7 °F /  -16.3 °C 1016.8 in /  34428.8 hPa NNW 7.4 mph /  11.9 km/h 7.4 mph /  11.9 km/h 57 % 0.0 in /  0 mm
13:02 11.0 °F /  -11.7 °C 2.8 °F /  -16.2 °C 1016.8 in /  34428.8 hPa NW 7.4 mph /  11.9 km/h 7.4 mph /  11.9 km/h 57 % 0.0 in /  0 mm
13:05 11.1 °F /  -11.6 °C 2.9 °F /  -16.2 °C 1015.8 in /  34395 hPa WNW 11.4 mph /  18.3 km/h 11.4 mph /  18.3 km/h 57 % 0.0 in /  0 mm
13:06 11.1 °F /  -11.6 °C 2.7 °F /  -16.3 °C 1015.8 in /  34395 hPa West 11.1 mph /  17.9 km/h 11.1 mph /  17.9 km/h 56 % 0.0 in /  0 mm
13:07 11.1 °F /  -11.6 °C 2.7 °F /  -16.3 °C 1015.8 in /  34395 hPa WSW 9.3 mph /  15 km/h 9.3 mph /  15 km/h 56 % 0.0 in /  0 mm
13:08 11.1 °F /  -11.6 °C 2.7 °F /  -16.3 °C 1015.8 in /  34395 hPa WNW 7.4 mph /  11.9 km/h 7.4 mph /  11.9 km/h 56 % 0.0 in /  0 mm
13:10 11.3 °F /  -11.5 °C 2.6 °F /  -16.3 °C 1015.8 in /  34395 hPa WSW 5.6 mph /  9 km/h 5.6 mph /  9 km/h 55 % 0.0 in /  0 mm
13:12 11.4 °F /  -11.4 °C 2.9 °F /  -16.2 °C 1015.8 in /  34395 hPa SW 7.9 mph /  12.7 km/h 7.9 mph /  12.7 km/h 56 % 0.0 in /  0 mm
13:13 11.4 °F /  -11.4 °C 2.9 °F /  -16.2 °C 1015.8 in /  34395 hPa WNW 9.3 mph /  15 km/h 9.3 mph /  15 km/h 56 % 0.0 in /  0 mm
13:14 11.4 °F /  -11.4 °C 2.9 °F /  -16.2 °C 1015.8 in /  34395 hPa WSW 9.3 mph /  15 km/h 9.3 mph /  15 km/h 56 % 0.0 in /  0 mm
13:16 11.4 °F /  -11.4 °C 2.7 °F /  -16.3 °C 1015.8 in /  34395 hPa North 5.6 mph /  9 km/h 5.6 mph /  9 km/h 55 % 0.0 in /  0 mm
13:17 11.4 °F /  -11.4 °C 2.7 °F /  -16.3 °C 1015.8 in /  34395 hPa WSW 3.7 mph /  6 km/h 3.7 mph /  6 km/h 55 % 0.0 in /  0 mm
13:19 11.7 °F /  -11.3 °C 2.9 °F /  -16.2 °C 1015.8 in /  34395 hPa West 2.3 mph /  3.7 km/h 2.3 mph /  3.7 km/h 55 % 0.0 in /  0 mm
13:20 11.7 °F /  -11.3 °C 2.9 °F /  -16.2 °C 1015.8 in /  34395 hPa SW 6.1 mph /  9.8 km/h 6.1 mph /  9.8 km/h 55 % 0.0 in /  0 mm
13:21 11.8 °F /  -11.2 °C 3.1 °F /  -16.1 °C 1015.8 in /  34395 hPa WSW 5.3 mph /  8.5 km/h 5.3 mph /  8.5 km/h 55 % 0.0 in /  0 mm
13:22 11.8 °F /  -11.2 °C 3.1 °F /  -16.1 °C 1015.8 in /  34395 hPa WSW 5.8 mph /  9.3 km/h 5.8 mph /  9.3 km/h 55 % 0.0 in /  0 mm
13:24 11.8 °F /  -11.2 °C 2.8 °F /  -16.2 °C 1015.8 in /  34395 hPa SW 9.3 mph /  15 km/h 9.3 mph /  15 km/h 54 % 0.0 in /  0 mm
13:25 11.8 °F /  -11.2 °C 2.8 °F /  -16.2 °C 1015.8 in /  34395 hPa WSW 7.4 mph /  11.9 km/h 7.4 mph /  11.9 km/h 54 % 0.0 in /  0 mm
13:26 11.8 °F /  -11.2 °C 3.1 °F /  -16.1 °C 1015.8 in /  34395 hPa SSW 7.4 mph /  11.9 km/h 7.4 mph /  11.9 km/h 55 % 0.0 in /  0 mm
13:27 11.9 °F /  -11.2 °C 2.9 °F /  -16.2 °C 1015.8 in /  34395 hPa WSW 5.6 mph /  9 km/h 5.6 mph /  9 km/h 54 % 0.0 in /  0 mm
13:28 11.9 °F /  -11.2 °C 2.9 °F /  -16.2 °C 1015.8 in /  34395 hPa NW 7.4 mph /  11.9 km/h 7.4 mph /  11.9 km/h 54 % 0.0 in /  0 mm
13:29 11.9 °F /  -11.2 °C 2.9 °F /  -16.2 °C 1015.8 in /  34395 hPa NE 3.7 mph /  6 km/h 3.7 mph /  6 km/h 54 % 0.0 in /  0 mm
13:30 12.0 °F /  -11.1 °C 2.9 °F /  -16.2 °C 1015.8 in /  34395 hPa NW 9.3 mph /  15 km/h 9.3 mph /  15 km/h 54 % 0.0 in /  0 mm
13:31 12.0 °F /  -11.1 °C 2.9 °F /  -16.2 °C 1015.8 in /  34395 hPa WSW 6.4 mph /  10.3 km/h 6.4 mph /  10.3 km/h 54 % 0.0 in /  0 mm
13:32 12.0 °F /  -11.1 °C 2.9 °F /  -16.2 °C 1015.8 in /  34395 hPa WNW 7.4 mph /  11.9 km/h 7.4 mph /  11.9 km/h 54 % 0.0 in /  0 mm
13:33 12.0 °F /  -11.1 °C 2.9 °F /  -16.2 °C 1015.8 in /  34395 hPa West 7.4 mph /  11.9 km/h 7.4 mph /  11.9 km/h 54 % 0.0 in /  0 mm
13:34 12.0 °F /  -11.1 °C 2.9 °F /  -16.2 °C 1015.8 in /  34395 hPa SW 6.1 mph /  9.8 km/h 6.1 mph /  9.8 km/h 54 % 0.0 in /  0 mm
13:38 12.0 °F /  -11.1 °C 2.9 °F /  -16.2 °C 1015.8 in /  34395 hPa WNW 11.1 mph /  17.9 km/h 11.1 mph /  17.9 km/h 54 % 0.0 in /  0 mm
13:40 11.8 °F /  -11.2 °C 2.5 °F /  -16.4 °C 1015.8 in /  34395 hPa WSW 11.1 mph /  17.9 km/h 11.1 mph /  17.9 km/h 53 % 0.0 in /  0 mm
13:42 11.8 °F /  -11.2 °C 2.5 °F /  -16.4 °C 1015.8 in /  34395 hPa West 9.7 mph /  15.6 km/h 9.7 mph /  15.6 km/h 53 % 0.0 in /  0 mm
13:43 11.8 °F /  -11.2 °C 2.5 °F /  -16.4 °C 1015.8 in /  34395 hPa NW 9.3 mph /  15 km/h 9.3 mph /  15 km/h 53 % 0.0 in /  0 mm
13:44 11.8 °F /  -11.2 °C 2.5 °F /  -16.4 °C 1015.8 in /  34395 hPa WNW 5.6 mph /  9 km/h 5.6 mph /  9 km/h 53 % 0.0 in /  0 mm
13:46 11.7 °F /  -11.3 °C 2.4 °F /  -16.4 °C 1015.8 in /  34395 hPa West 10.3 mph /  16.6 km/h 10.3 mph /  16.6 km/h 53 % 0.0 in /  0 mm
13:48 11.7 °F /  -11.3 °C 2.2 °F /  -16.6 °C 1015.8 in /  34395 hPa NNE 7.4 mph /  11.9 km/h 7.4 mph /  11.9 km/h 52 % 0.0 in /  0 mm
13:49 11.7 °F /  -11.3 °C 2.2 °F /  -16.6 °C 1015.8 in /  34395 hPa West 7.4 mph /  11.9 km/h 7.4 mph /  11.9 km/h 52 % 0.0 in /  0 mm
13:50 11.7 °F /  -11.3 °C 2.2 °F /  -16.6 °C 1015.8 in /  34395 hPa WSW 7.4 mph /  11.9 km/h 7.4 mph /  11.9 km/h 52 % 0.0 in /  0 mm
13:51 11.7 °F /  -11.3 °C 2.2 °F /  -16.6 °C 1015.8 in /  34395 hPa SW 5.6 mph /  9 km/h 5.6 mph /  9 km/h 52 % 0.0 in /  0 mm
13:52 11.7 °F /  -11.3 °C 2.2 °F /  -16.6 °C 1015.8 in /  34395 hPa West 5.6 mph /  9 km/h 5.6 mph /  9 km/h 52 % 0.0 in /  0 mm
13:53 11.8 °F /  -11.2 °C 2.3 °F /  -16.5 °C 1015.8 in /  34395 hPa NNW 3.9 mph /  6.3 km/h 3.9 mph /  6.3 km/h 52 % 0.0 in /  0 mm
13:55 11.7 °F /  -11.3 °C 2.2 °F /  -16.6 °C 1015.8 in /  34395 hPa WNW 7.4 mph /  11.9 km/h 7.4 mph /  11.9 km/h 52 % 0.0 in /  0 mm
13:56 11.7 °F /  -11.3 °C 2.2 °F /  -16.6 °C 1015.8 in /  34395 hPa WSW 5.6 mph /  9 km/h 5.6 mph /  9 km/h 52 % 0.0 in /  0 mm
13:57 11.8 °F /  -11.2 °C 2.3 °F /  -16.5 °C 1015.8 in /  34395 hPa WSW 5.6 mph /  9 km/h 5.6 mph /  9 km/h 52 % 0.0 in /  0 mm
13:59 11.8 °F /  -11.2 °C 2.3 °F /  -16.5 °C 1015.8 in /  34395 hPa WSW 7.4 mph /  11.9 km/h 7.4 mph /  11.9 km/h 52 % 0.0 in /  0 mm
14:00 11.8 °F /  -11.2 °C 2.3 °F /  -16.5 °C 1015.8 in /  34395 hPa West 3.2 mph /  5.1 km/h 9.7 mph /  15.6 km/h 52 % 0.0 in /  0 mm
14:02 12.0 °F /  -11.1 °C 2.4 °F /  -16.4 °C 1015.8 in /  34395 hPa West 9.3 mph /  15 km/h 9.3 mph /  15 km/h 52 % 0.0 in /  0 mm
14:03 12.0 °F /  -11.1 °C 2.4 °F /  -16.4 °C 1015.8 in /  34395 hPa West 9.3 mph /  15 km/h 9.3 mph /  15 km/h 52 % 0.0 in /  0 mm
14:06 12.1 °F /  -11.1 °C 2.6 °F /  -16.3 °C 1015.8 in /  34395 hPa West 4.2 mph /  6.8 km/h 4.2 mph /  6.8 km/h 52 % 0.0 in /  0 mm
14:07 12.1 °F /  -11.1 °C 2.6 °F /  -16.3 °C 1015.8 in /  34395 hPa WSW 7.9 mph /  12.7 km/h 7.9 mph /  12.7 km/h 52 % 0.0 in /  0 mm
14:08 12.1 °F /  -11.1 °C 2.6 °F /  -16.3 °C 1015.8 in /  34395 hPa SSW 6.4 mph /  10.3 km/h 6.4 mph /  10.3 km/h 52 % 0.0 in /  0 mm
14:10 12.1 °F /  -11.1 °C 2.6 °F /  -16.3 °C 1015.8 in /  34395 hPa WSW 9.3 mph /  15 km/h 9.3 mph /  15 km/h 52 % 0.0 in /  0 mm
14:14 12.2 °F /  -11 °C 2.6 °F /  -16.3 °C 1015.8 in /  34395 hPa West 7.4 mph /  11.9 km/h 7.4 mph /  11.9 km/h 52 % 0.0 in /  0 mm
14:15 12.2 °F /  -11 °C 2.6 °F /  -16.3 °C 1015.8 in /  34395 hPa NNW 7.4 mph /  11.9 km/h 7.4 mph /  11.9 km/h 52 % 0.0 in /  0 mm
14:16 12.1 °F /  -11.1 °C 2.6 °F /  -16.3 °C 1015.8 in /  34395 hPa WSW 8.7 mph /  14 km/h 8.7 mph /  14 km/h 52 % 0.0 in /  0 mm
14:17 12.1 °F /  -11.1 °C 2.6 °F /  -16.3 °C 1015.8 in /  34395 hPa West 9.3 mph /  15 km/h 9.3 mph /  15 km/h 52 % 0.0 in /  0 mm
14:18 12.1 °F /  -11.1 °C 2.6 °F /  -16.3 °C 1015.8 in /  34395 hPa SW 7.4 mph /  11.9 km/h 7.4 mph /  11.9 km/h 52 % 0.0 in /  0 mm
14:19 12.2 °F /  -11 °C 2.3 °F /  -16.5 °C 1015.8 in /  34395 hPa SSW 7.4 mph /  11.9 km/h 7.4 mph /  11.9 km/h 51 % 0.0 in /  0 mm
14:21 12.2 °F /  -11 °C 2.3 °F /  -16.5 °C 1015.8 in /  34395 hPa NW 7.4 mph /  11.9 km/h 7.4 mph /  11.9 km/h 51 % 0.0 in /  0 mm
14:24 12.2 °F /  -11 °C 2.3 °F /  -16.5 °C 1015.8 in /  34395 hPa NW 5.6 mph /  9 km/h 5.6 mph /  9 km/h 51 % 0.0 in /  0 mm
14:25 12.2 °F /  -11 °C 2.3 °F /  -16.5 °C 1015.8 in /  34395 hPa West 5.6 mph /  9 km/h 5.6 mph /  9 km/h 51 % 0.0 in /  0 mm
14:27 12.2 °F /  -11 °C 2.3 °F /  -16.5 °C 1015.8 in /  34395 hPa South 1.9 mph /  3.1 km/h 1.9 mph /  3.1 km/h 51 % 0.0 in /  0 mm
14:28 12.2 °F /  -11 °C 2.3 °F /  -16.5 °C 1015.8 in /  34395 hPa SSE 6.1 mph /  9.8 km/h 6.1 mph /  9.8 km/h 51 % 0.0 in /  0 mm
14:30 12.2 °F /  -11 °C 2.3 °F /  -16.5 °C 1015.8 in /  34395 hPa WSW 5.8 mph /  9.3 km/h 5.8 mph /  9.3 km/h 51 % 0.0 in /  0 mm
14:31 12.2 °F /  -11 °C 2.3 °F /  -16.5 °C 1015.8 in /  34395 hPa WSW 5.6 mph /  9 km/h 5.6 mph /  9 km/h 51 % 0.0 in /  0 mm
14:33 12.1 °F /  -11.1 °C 2.3 °F /  -16.5 °C 1015.8 in /  34395 hPa West 6.9 mph /  11.1 km/h 6.9 mph /  11.1 km/h 51 % 0.0 in /  0 mm
14:34 12.1 °F /  -11.1 °C 2.3 °F /  -16.5 °C 1015.8 in /  34395 hPa WSW 9.3 mph /  15 km/h 9.3 mph /  15 km/h 51 % 0.0 in /  0 mm
14:35 12.1 °F /  -11.1 °C 2.3 °F /  -16.5 °C 1015.8 in /  34395 hPa WSW 9.3 mph /  15 km/h 9.3 mph /  15 km/h 51 % 0.0 in /  0 mm
14:37 12.1 °F /  -11.1 °C 2.3 °F /  -16.5 °C 1015.8 in /  34395 hPa West 5.0 mph /  8 km/h 5.0 mph /  8 km/h 51 % 0.0 in /  0 mm
14:39 12.0 °F /  -11.1 °C 2.2 °F /  -16.6 °C 1015.8 in /  34395 hPa West 7.4 mph /  11.9 km/h 7.4 mph /  11.9 km/h 51 % 0.0 in /  0 mm
14:40 11.9 °F /  -11.2 °C 2.1 °F /  -16.6 °C 1015.8 in /  34395 hPa WSW 7.4 mph /  11.9 km/h 7.4 mph /  11.9 km/h 51 % 0.0 in /  0 mm
14:41 11.9 °F /  -11.2 °C 2.1 °F /  -16.6 °C 1015.8 in /  34395 hPa WSW 7.4 mph /  11.9 km/h 7.4 mph /  11.9 km/h 51 % 0.0 in /  0 mm
14:42 11.9 °F /  -11.2 °C 2.1 °F /  -16.6 °C 1015.8 in /  34395 hPa WSW 7.4 mph /  11.9 km/h 7.4 mph /  11.9 km/h 51 % 0.0 in /  0 mm
14:44 11.9 °F /  -11.2 °C 2.1 °F /  -16.6 °C 1015.8 in /  34395 hPa NE 5.6 mph /  9 km/h 5.6 mph /  9 km/h 51 % 0.0 in /  0 mm
14:45 11.9 °F /  -11.2 °C 2.1 °F /  -16.6 °C 1015.8 in /  34395 hPa SSW 5.6 mph /  9 km/h 5.6 mph /  9 km/h 51 % 0.0 in /  0 mm
14:46 11.9 °F /  -11.2 °C 2.1 °F /  -16.6 °C 1015.8 in /  34395 hPa NW 5.6 mph /  9 km/h 5.6 mph /  9 km/h 51 % 0.0 in /  0 mm
14:47 11.8 °F /  -11.2 °C 2.0 °F /  -16.7 °C 1015.8 in /  34395 hPa WSW 5.6 mph /  9 km/h 5.6 mph /  9 km/h 51 % 0.0 in /  0 mm
14:48 11.8 °F /  -11.2 °C 2.0 °F /  -16.7 °C 1015.8 in /  34395 hPa WNW 3.7 mph /  6 km/h 3.7 mph /  6 km/h 51 % 0.0 in /  0 mm
14:49 11.8 °F /  -11.2 °C 2.0 °F /  -16.7 °C 1015.8 in /  34395 hPa NW 4.7 mph /  7.6 km/h 4.7 mph /  7.6 km/h 51 % 0.0 in /  0 mm
14:50 11.8 °F /  -11.2 °C 2.0 °F /  -16.7 °C 1015.8 in /  34395 hPa WSW 5.6 mph /  9 km/h 5.6 mph /  9 km/h 51 % 0.0 in /  0 mm
14:52 11.8 °F /  -11.2 °C 2.0 °F /  -16.7 °C 1015.8 in /  34395 hPa West 5.6 mph /  9 km/h 5.6 mph /  9 km/h 51 % 0.0 in /  0 mm
14:53 11.8 °F /  -11.2 °C 2.0 °F /  -16.7 °C 1015.8 in /  34395 hPa WNW 5.6 mph /  9 km/h 5.6 mph /  9 km/h 51 % 0.0 in /  0 mm
14:54 11.8 °F /  -11.2 °C 2.0 °F /  -16.7 °C 1015.8 in /  34395 hPa WSW 9.0 mph /  14.5 km/h 9.0 mph /  14.5 km/h 51 % 0.0 in /  0 mm
14:55 11.8 °F /  -11.2 °C 2.0 °F /  -16.7 °C 1015.8 in /  34395 hPa NNW 6.4 mph /  10.3 km/h 6.4 mph /  10.3 km/h 51 % 0.0 in /  0 mm
14:56 11.8 °F /  -11.2 °C 2.0 °F /  -16.7 °C 1015.8 in /  34395 hPa NNW 7.4 mph /  11.9 km/h 7.4 mph /  11.9 km/h 51 % 0.0 in /  0 mm
14:58 11.9 °F /  -11.2 °C 2.1 °F /  -16.6 °C 1015.8 in /  34395 hPa WNW 5.0 mph /  8 km/h 5.0 mph /  8 km/h 51 % 0.0 in /  0 mm
14:59 11.9 °F /  -11.2 °C 2.1 °F /  -16.6 °C 1015.8 in /  34395 hPa WNW 3.7 mph /  6 km/h 3.9 mph /  6.3 km/h 51 % 0.0 in /  0 mm
15:00 11.9 °F /  -11.2 °C 2.1 °F /  -16.6 °C 1015.8 in /  34395 hPa WNW 5.6 mph /  9 km/h 5.6 mph /  9 km/h 51 % 0.0 in /  0 mm
15:03 11.9 °F /  -11.2 °C 2.1 °F /  -16.6 °C 1015.8 in /  34395 hPa West 9.3 mph /  15 km/h 9.3 mph /  15 km/h 51 % 0.0 in /  0 mm
15:05 12.0 °F /  -11.1 °C 2.2 °F /  -16.6 °C 1015.8 in /  34395 hPa West 3.2 mph /  5.1 km/h 9.7 mph /  15.6 km/h 51 % 0.0 in /  0 mm
15:06 12.1 °F /  -11.1 °C 2.3 °F /  -16.5 °C 1015.8 in /  34395 hPa SW 11.1 mph /  17.9 km/h 11.1 mph /  17.9 km/h 51 % 0.0 in /  0 mm
15:07 12.1 °F /  -11.1 °C 2.3 °F /  -16.5 °C 1015.8 in /  34395 hPa WNW 11.1 mph /  17.9 km/h 11.1 mph /  17.9 km/h 51 % 0.0 in /  0 mm
15:08 12.0 °F /  -11.1 °C 1.9 °F /  -16.7 °C 1015.8 in /  34395 hPa WSW 11.1 mph /  17.9 km/h 11.1 mph /  17.9 km/h 50 % 0.0 in /  0 mm
15:09 12.0 °F /  -11.1 °C 1.9 °F /  -16.7 °C 1015.8 in /  34395 hPa WNW 11.1 mph /  17.9 km/h 11.1 mph /  17.9 km/h 50 % 0.0 in /  0 mm
15:10 12.0 °F /  -11.1 °C 1.9 °F /  -16.7 °C 1015.8 in /  34395 hPa West 9.3 mph /  15 km/h 9.3 mph /  15 km/h 50 % 0.0 in /  0 mm
15:11 12.0 °F /  -11.1 °C 1.9 °F /  -16.7 °C 1015.8 in /  34395 hPa NW 7.4 mph /  11.9 km/h 7.4 mph /  11.9 km/h 50 % 0.0 in /  0 mm
15:12 11.9 °F /  -11.2 °C 1.8 °F /  -16.8 °C 1015.8 in /  34395 hPa West 5.6 mph /  9 km/h 5.6 mph /  9 km/h 50 % 0.0 in /  0 mm
15:13 12.0 °F /  -11.1 °C 1.9 °F /  -16.7 °C 1015.8 in /  34395 hPa WNW 5.6 mph /  9 km/h 5.6 mph /  9 km/h 50 % 0.0 in /  0 mm
15:14 11.9 °F /  -11.2 °C 1.8 °F /  -16.8 °C 1015.8 in /  34395 hPa SSW 5.6 mph /  9 km/h 5.6 mph /  9 km/h 50 % 0.0 in /  0 mm
15:16 12.0 °F /  -11.1 °C 1.9 °F /  -16.7 °C 1015.8 in /  34395 hPa WSW 3.7 mph /  6 km/h 3.7 mph /  6 km/h 50 % 0.0 in /  0 mm
15:17 12.0 °F /  -11.1 °C 2.2 °F /  -16.6 °C 1015.8 in /  34395 hPa NNW 5.8 mph /  9.3 km/h 5.8 mph /  9.3 km/h 51 % 0.0 in /  0 mm
15:18 12.0 °F /  -11.1 °C 2.2 °F /  -16.6 °C 1015.8 in /  34395 hPa WNW 5.6 mph /  9 km/h 5.6 mph /  9 km/h 51 % 0.0 in /  0 mm
15:20 11.9 °F /  -11.2 °C 1.8 °F /  -16.8 °C 1015.8 in /  34395 hPa NW 3.9 mph /  6.3 km/h 3.9 mph /  6.3 km/h 50 % 0.0 in /  0 mm
15:21 11.9 °F /  -11.2 °C 1.8 °F /  -16.8 °C 1015.8 in /  34395 hPa West 5.8 mph /  9.3 km/h 5.8 mph /  9.3 km/h 50 % 0.0 in /  0 mm
15:23 11.8 °F /  -11.2 °C 1.7 °F /  -16.8 °C 1015.8 in /  34395 hPa WSW 5.6 mph /  9 km/h 5.6 mph /  9 km/h 50 % 0.0 in /  0 mm
15:25 11.8 °F /  -11.2 °C 1.7 °F /  -16.8 °C 1015.8 in /  34395 hPa West 9.3 mph /  15 km/h 9.3 mph /  15 km/h 50 % 0.0 in /  0 mm
15:26 11.8 °F /  -11.2 °C 1.7 °F /  -16.8 °C 1015.8 in /  34395 hPa West 9.3 mph /  15 km/h 9.3 mph /  15 km/h 50 % 0.0 in /  0 mm
15:27 11.9 °F /  -11.2 °C 1.8 °F /  -16.8 °C 1015.8 in /  34395 hPa West 5.6 mph /  9 km/h 5.6 mph /  9 km/h 50 % 0.0 in /  0 mm
15:28 11.9 °F /  -11.2 °C 1.8 °F /  -16.8 °C 1015.8 in /  34395 hPa West 7.4 mph /  11.9 km/h 7.4 mph /  11.9 km/h 50 % 0.0 in /  0 mm
15:29 11.8 °F /  -11.2 °C 1.7 °F /  -16.8 °C 1015.8 in /  34395 hPa WSW 5.6 mph /  9 km/h 5.6 mph /  9 km/h 50 % 0.0 in /  0 mm
15:30 11.8 °F /  -11.2 °C 1.7 °F /  -16.8 °C 1015.8 in /  34395 hPa WNW 5.8 mph /  9.3 km/h 5.8 mph /  9.3 km/h 50 % 0.0 in /  0 mm
15:33 11.7 °F /  -11.3 °C 1.6 °F /  -16.9 °C 1015.8 in /  34395 hPa WNW 5.6 mph /  9 km/h 5.6 mph /  9 km/h 50 % 0.0 in /  0 mm
15:36 11.6 °F /  -11.3 °C 1.5 °F /  -16.9 °C 1015.8 in /  34395 hPa West 11.4 mph /  18.3 km/h 11.4 mph /  18.3 km/h 50 % 0.0 in /  0 mm
15:38 11.6 °F /  -11.3 °C 1.5 °F /  -16.9 °C 1015.8 in /  34395 hPa NW 5.6 mph /  9 km/h 5.6 mph /  9 km/h 50 % 0.0 in /  0 mm
15:39 11.6 °F /  -11.3 °C 1.5 °F /  -16.9 °C 1015.8 in /  34395 hPa West 9.0 mph /  14.5 km/h 9.0 mph /  14.5 km/h 50 % 0.0 in /  0 mm
15:40 11.6 °F /  -11.3 °C 1.5 °F /  -16.9 °C 1015.8 in /  34395 hPa WNW 9.3 mph /  15 km/h 9.3 mph /  15 km/h 50 % 0.0 in /  0 mm
15:42 11.5 °F /  -11.4 °C 1.4 °F /  -17 °C 1015.8 in /  34395 hPa SW 7.4 mph /  11.9 km/h 7.4 mph /  11.9 km/h 50 % 0.0 in /  0 mm
15:43 11.5 °F /  -11.4 °C 1.4 °F /  -17 °C 1015.8 in /  34395 hPa West 5.6 mph /  9 km/h 6.1 mph /  9.8 km/h 50 % 0.0 in /  0 mm
15:45 11.5 °F /  -11.4 °C 1.4 °F /  -17 °C 1015.8 in /  34395 hPa West 7.4 mph /  11.9 km/h 7.4 mph /  11.9 km/h 50 % 0.0 in /  0 mm
15:47 11.5 °F /  -11.4 °C 1.4 °F /  -17 °C 1015.8 in /  34395 hPa WNW 3.7 mph /  6 km/h 3.9 mph /  6.3 km/h 50 % 0.0 in /  0 mm
15:48 11.5 °F /  -11.4 °C 1.4 °F /  -17 °C 1015.8 in /  34395 hPa West 3.9 mph /  6.3 km/h 3.9 mph /  6.3 km/h 50 % 0.0 in /  0 mm
15:49 11.5 °F /  -11.4 °C 1.4 °F /  -17 °C 1015.8 in /  34395 hPa WNW 5.6 mph /  9 km/h 5.6 mph /  9 km/h 50 % 0.0 in /  0 mm
15:50 11.5 °F /  -11.4 °C 1.4 °F /  -17 °C 1014.8 in /  34361.1 hPa WNW 5.6 mph /  9 km/h 5.6 mph /  9 km/h 50 % 0.0 in /  0 mm
15:51 11.4 °F /  -11.4 °C 1.3 °F /  -17.1 °C 1014.8 in /  34361.1 hPa NW 6.9 mph /  11.1 km/h 6.9 mph /  11.1 km/h 50 % 0.0 in /  0 mm
15:52 11.4 °F /  -11.4 °C 1.3 °F /  -17.1 °C 1014.8 in /  34361.1 hPa NNE 9.3 mph /  15 km/h 9.3 mph /  15 km/h 50 % 0.0 in /  0 mm
15:53 11.4 °F /  -11.4 °C 1.3 °F /  -17.1 °C 1014.8 in /  34361.1 hPa West 7.4 mph /  11.9 km/h 7.4 mph /  11.9 km/h 50 % 0.0 in /  0 mm
15:54 11.4 °F /  -11.4 °C 1.3 °F /  -17.1 °C 1014.8 in /  34361.1 hPa West 9.5 mph /  15.3 km/h 9.5 mph /  15.3 km/h 50 % 0.0 in /  0 mm
15:55 11.4 °F /  -11.4 °C 1.3 °F /  -17.1 °C 1014.8 in /  34361.1 hPa WNW 9.3 mph /  15 km/h 9.3 mph /  15 km/h 50 % 0.0 in /  0 mm
15:56 11.4 °F /  -11.4 °C 1.3 °F /  -17.1 °C 1014.8 in /  34361.1 hPa SW 9.3 mph /  15 km/h 9.3 mph /  15 km/h 50 % 0.0 in /  0 mm
15:58 11.3 °F /  -11.5 °C 0.9 °F /  -17.3 °C 1014.8 in /  34361.1 hPa WNW 9.3 mph /  15 km/h 9.3 mph /  15 km/h 49 % 0.0 in /  0 mm
16:00 11.3 °F /  -11.5 °C 0.9 °F /  -17.3 °C 1014.8 in /  34361.1 hPa SW 5.6 mph /  9 km/h 5.6 mph /  9 km/h 49 % 0.0 in /  0 mm
16:01 11.3 °F /  -11.5 °C 0.9 °F /  -17.3 °C 1014.8 in /  34361.1 hPa NW 6.1 mph /  9.8 km/h 6.1 mph /  9.8 km/h 49 % 0.0 in /  0 mm
16:02 11.3 °F /  -11.5 °C 0.9 °F /  -17.3 °C 1014.8 in /  34361.1 hPa NNW 10.3 mph /  16.6 km/h 10.3 mph /  16.6 km/h 49 % 0.0 in /  0 mm
16:03 11.2 °F /  -11.6 °C 0.9 °F /  -17.3 °C 1014.8 in /  34361.1 hPa West 11.1 mph /  17.9 km/h 11.1 mph /  17.9 km/h 49 % 0.0 in /  0 mm
16:04 11.2 °F /  -11.6 °C 0.9 °F /  -17.3 °C 1014.8 in /  34361.1 hPa West 9.3 mph /  15 km/h 9.3 mph /  15 km/h 49 % 0.0 in /  0 mm
16:05 11.2 °F /  -11.6 °C 0.9 °F /  -17.3 °C 1015.8 in /  34395 hPa WNW 7.4 mph /  11.9 km/h 7.4 mph /  11.9 km/h 49 % 0.0 in /  0 mm
16:06 11.2 °F /  -11.6 °C 0.9 °F /  -17.3 °C 1015.8 in /  34395 hPa NW 5.6 mph /  9 km/h 5.6 mph /  9 km/h 49 % 0.0 in /  0 mm
16:07 11.2 °F /  -11.6 °C 0.9 °F /  -17.3 °C 1015.8 in /  34395 hPa WSW 5.6 mph /  9 km/h 5.6 mph /  9 km/h 49 % 0.0 in /  0 mm
16:08 11.2 °F /  -11.6 °C 0.9 °F /  -17.3 °C 1015.8 in /  34395 hPa WNW 9.3 mph /  15 km/h 9.3 mph /  15 km/h 49 % 0.0 in /  0 mm
16:12 11.3 °F /  -11.5 °C 0.7 °F /  -17.4 °C 1015.8 in /  34395 hPa West 11.1 mph /  17.9 km/h 11.1 mph /  17.9 km/h 48 % 0.0 in /  0 mm
16:13 11.3 °F /  -11.5 °C 0.7 °F /  -17.4 °C 1015.8 in /  34395 hPa ENE 11.1 mph /  17.9 km/h 11.1 mph /  17.9 km/h 48 % 0.0 in /  0 mm
16:15 11.3 °F /  -11.5 °C 0.7 °F /  -17.4 °C 1015.8 in /  34395 hPa NW 9.3 mph /  15 km/h 9.3 mph /  15 km/h 48 % 0.0 in /  0 mm
16:16 11.3 °F /  -11.5 °C 0.7 °F /  -17.4 °C 1015.8 in /  34395 hPa NW 9.3 mph /  15 km/h 9.3 mph /  15 km/h 48 % 0.0 in /  0 mm
16:17 11.3 °F /  -11.5 °C 0.7 °F /  -17.4 °C 1015.8 in /  34395 hPa WNW 7.4 mph /  11.9 km/h 7.4 mph /  11.9 km/h 48 % 0.0 in /  0 mm
16:18 11.3 °F /  -11.5 °C 0.7 °F /  -17.4 °C 1015.8 in /  34395 hPa West 11.1 mph /  17.9 km/h 11.1 mph /  17.9 km/h 48 % 0.0 in /  0 mm
16:19 11.3 °F /  -11.5 °C 0.7 °F /  -17.4 °C 1015.8 in /  34395 hPa West 11.1 mph /  17.9 km/h 11.1 mph /  17.9 km/h 48 % 0.0 in /  0 mm
16:20 11.2 °F /  -11.6 °C 0.6 °F /  -17.4 °C 1015.8 in /  34395 hPa WNW 9.3 mph /  15 km/h 9.3 mph /  15 km/h 48 % 0.0 in /  0 mm
16:21 11.2 °F /  -11.6 °C 0.6 °F /  -17.4 °C 1015.8 in /  34395 hPa West 9.3 mph /  15 km/h 9.3 mph /  15 km/h 48 % 0.0 in /  0 mm
16:22 11.2 °F /  -11.6 °C 0.6 °F /  -17.4 °C 1015.8 in /  34395 hPa WNW 8.7 mph /  14 km/h 8.7 mph /  14 km/h 48 % 0.0 in /  0 mm
16:23 11.2 °F /  -11.6 °C 0.6 °F /  -17.4 °C 1015.8 in /  34395 hPa WNW 9.3 mph /  15 km/h 9.3 mph /  15 km/h 48 % 0.0 in /  0 mm
16:25 11.1 °F /  -11.6 °C 0.5 °F /  -17.5 °C 1015.8 in /  34395 hPa WSW 5.6 mph /  9 km/h 5.6 mph /  9 km/h 48 % 0.0 in /  0 mm
16:26 11.1 °F /  -11.6 °C 0.5 °F /  -17.5 °C 1015.8 in /  34395 hPa WSW 5.6 mph /  9 km/h 5.6 mph /  9 km/h 48 % 0.0 in /  0 mm
16:27 11.0 °F /  -11.7 °C 0.4 °F /  -17.6 °C 1015.8 in /  34395 hPa West 7.4 mph /  11.9 km/h 7.4 mph /  11.9 km/h 48 % 0.0 in /  0 mm
16:28 11.0 °F /  -11.7 °C 0.4 °F /  -17.6 °C 1015.8 in /  34395 hPa West 11.1 mph /  17.9 km/h 11.1 mph /  17.9 km/h 48 % 0.0 in /  0 mm
16:29 11.0 °F /  -11.7 °C 0.4 °F /  -17.6 °C 1015.8 in /  34395 hPa WNW 11.1 mph /  17.9 km/h 11.1 mph /  17.9 km/h 48 % 0.0 in /  0 mm
16:30 11.0 °F /  -11.7 °C 0.4 °F /  -17.6 °C 1015.8 in /  34395 hPa West 5.6 mph /  9 km/h 5.6 mph /  9 km/h 48 % 0.0 in /  0 mm
16:31 10.9 °F /  -11.7 °C 0.3 °F /  -17.6 °C 1015.8 in /  34395 hPa WSW 9.3 mph /  15 km/h 9.3 mph /  15 km/h 48 % 0.0 in /  0 mm
16:34 10.8 °F /  -11.8 °C 0.2 °F /  -17.7 °C 1015.8 in /  34395 hPa WSW 9.3 mph /  15 km/h 9.3 mph /  15 km/h 48 % 0.0 in /  0 mm
16:35 10.8 °F /  -11.8 °C 0.2 °F /  -17.7 °C 1015.8 in /  34395 hPa WSW 9.5 mph /  15.3 km/h 9.5 mph /  15.3 km/h 48 % 0.0 in /  0 mm
16:36 10.7 °F /  -11.8 °C 0.1 °F /  -17.7 °C 1015.8 in /  34395 hPa West 14.8 mph /  23.8 km/h 14.8 mph /  23.8 km/h 48 % 0.0 in /  0 mm
16:37 10.7 °F /  -11.8 °C 0.1 °F /  -17.7 °C 1015.8 in /  34395 hPa WSW 9.3 mph /  15 km/h 9.3 mph /  15 km/h 48 % 0.0 in /  0 mm
16:38 10.7 °F /  -11.8 °C 0.1 °F /  -17.7 °C 1015.8 in /  34395 hPa WSW 9.3 mph /  15 km/h 9.3 mph /  15 km/h 48 % 0.0 in /  0 mm
16:39 10.6 °F /  -11.9 °C 0.1 °F /  -17.7 °C 1015.8 in /  34395 hPa WSW 5.6 mph /  9 km/h 5.6 mph /  9 km/h 48 % 0.0 in /  0 mm
16:40 10.6 °F /  -11.9 °C 0.1 °F /  -17.7 °C 1015.8 in /  34395 hPa WNW 7.4 mph /  11.9 km/h 7.4 mph /  11.9 km/h 48 % 0.0 in /  0 mm
16:41 10.6 °F /  -11.9 °C 0.1 °F /  -17.7 °C 1015.8 in /  34395 hPa WNW 7.4 mph /  11.9 km/h 7.4 mph /  11.9 km/h 48 % 0.0 in /  0 mm
16:43 10.5 °F /  -11.9 °C -0.1 °F /  -17.8 °C 1015.8 in /  34395 hPa West 7.4 mph /  11.9 km/h 7.4 mph /  11.9 km/h 48 % 0.0 in /  0 mm
16:44 10.5 °F /  -11.9 °C -0.1 °F /  -17.8 °C 1015.8 in /  34395 hPa NW 5.6 mph /  9 km/h 5.6 mph /  9 km/h 48 % 0.0 in /  0 mm
16:45 10.4 °F /  -12 °C -0.2 °F /  -17.9 °C 1015.8 in /  34395 hPa SW 5.3 mph /  8.5 km/h 5.3 mph /  8.5 km/h 48 % 0.0 in /  0 mm
16:46 10.4 °F /  -12 °C -0.2 °F /  -17.9 °C 1015.8 in /  34395 hPa SSW 5.6 mph /  9 km/h 5.6 mph /  9 km/h 48 % 0.0 in /  0 mm
16:47 10.4 °F /  -12 °C -0.2 °F /  -17.9 °C 1015.8 in /  34395 hPa West 5.6 mph /  9 km/h 5.6 mph /  9 km/h 48 % 0.0 in /  0 mm
16:49 10.3 °F /  -12.1 °C -0.2 °F /  -17.9 °C 1015.8 in /  34395 hPa West 7.4 mph /  11.9 km/h 7.4 mph /  11.9 km/h 48 % 0.0 in /  0 mm
16:50 10.3 °F /  -12.1 °C -0.2 °F /  -17.9 °C 1015.8 in /  34395 hPa WNW 7.4 mph /  11.9 km/h 7.4 mph /  11.9 km/h 48 % 0.0 in /  0 mm
16:51 10.3 °F /  -12.1 °C -0.2 °F /  -17.9 °C 1015.8 in /  34395 hPa West 5.6 mph /  9 km/h 5.6 mph /  9 km/h 48 % 0.0 in /  0 mm
16:54 10.2 °F /  -12.1 °C -0.3 °F /  -17.9 °C 1015.8 in /  34395 hPa WNW 6.4 mph /  10.3 km/h 6.4 mph /  10.3 km/h 48 % 0.0 in /  0 mm
16:55 10.2 °F /  -12.1 °C -0.3 °F /  -17.9 °C 1015.8 in /  34395 hPa WSW 7.4 mph /  11.9 km/h 7.4 mph /  11.9 km/h 48 % 0.0 in /  0 mm
16:56 10.2 °F /  -12.1 °C -0.3 °F /  -17.9 °C 1015.8 in /  34395 hPa South 7.4 mph /  11.9 km/h 7.4 mph /  11.9 km/h 48 % 0.0 in /  0 mm
16:57 10.1 °F /  -12.2 °C -0.4 °F /  -18 °C 1015.8 in /  34395 hPa West 7.4 mph /  11.9 km/h 7.4 mph /  11.9 km/h 48 % 0.0 in /  0 mm
16:58 10.1 °F /  -12.2 °C -0.4 °F /  -18 °C 1015.8 in /  34395 hPa WSW 9.3 mph /  15 km/h 9.3 mph /  15 km/h 48 % 0.0 in /  0 mm
16:59 10.1 °F /  -12.2 °C -0.4 °F /  -18 °C 1015.8 in /  34395 hPa WSW 9.3 mph /  15 km/h 9.3 mph /  15 km/h 48 % 0.0 in /  0 mm
17:00 10.0 °F /  -12.2 °C -0.5 °F /  -18.1 °C 1015.8 in /  34395 hPa West 7.4 mph /  11.9 km/h 7.4 mph /  11.9 km/h 48 % 0.0 in /  0 mm
17:03 10.0 °F /  -12.2 °C -0.5 °F /  -18.1 °C 1015.8 in /  34395 hPa WSW 11.1 mph /  17.9 km/h 11.1 mph /  17.9 km/h 48 % 0.0 in /  0 mm
17:05 9.9 °F /  -12.3 °C -0.6 °F /  -18.1 °C 1015.8 in /  34395 hPa West 9.3 mph /  15 km/h 9.3 mph /  15 km/h 48 % 0.0 in /  0 mm
17:06 9.9 °F /  -12.3 °C -0.6 °F /  -18.1 °C 1015.8 in /  34395 hPa West 7.4 mph /  11.9 km/h 7.4 mph /  11.9 km/h 48 % 0.0 in /  0 mm
17:07 9.9 °F /  -12.3 °C -0.6 °F /  -18.1 °C 1015.8 in /  34395 hPa West 9.3 mph /  15 km/h 9.3 mph /  15 km/h 48 % 0.0 in /  0 mm
17:08 9.9 °F /  -12.3 °C -0.6 °F /  -18.1 °C 1015.8 in /  34395 hPa WSW 10.3 mph /  16.6 km/h 10.3 mph /  16.6 km/h 48 % 0.0 in /  0 mm
17:09 9.9 °F /  -12.3 °C -0.6 °F /  -18.1 °C 1015.8 in /  34395 hPa WNW 11.1 mph /  17.9 km/h 11.1 mph /  17.9 km/h 48 % 0.0 in /  0 mm
17:10 9.9 °F /  -12.3 °C -0.6 °F /  -18.1 °C 1015.8 in /  34395 hPa West 8.0 mph /  12.9 km/h 11.3 mph /  18.2 km/h 48 % 0.0 in /  0 mm
17:11 9.8 °F /  -12.3 °C -0.7 °F /  -18.2 °C 1015.8 in /  34395 hPa WSW 7.4 mph /  11.9 km/h 7.4 mph /  11.9 km/h 48 % 0.0 in /  0 mm
17:12 9.8 °F /  -12.3 °C -0.7 °F /  -18.2 °C 1015.8 in /  34395 hPa WSW 7.4 mph /  11.9 km/h 7.4 mph /  11.9 km/h 48 % 0.0 in /  0 mm
17:13 9.8 °F /  -12.3 °C -0.7 °F /  -18.2 °C 1015.8 in /  34395 hPa WSW 11.1 mph /  17.9 km/h 11.1 mph /  17.9 km/h 48 % 0.0 in /  0 mm
17:15 9.8 °F /  -12.3 °C -0.7 °F /  -18.2 °C 1015.8 in /  34395 hPa WSW 9.3 mph /  15 km/h 9.3 mph /  15 km/h 48 % 0.0 in /  0 mm
17:17 9.7 °F /  -12.4 °C -0.8 °F /  -18.2 °C 1015.8 in /  34395 hPa WNW 9.3 mph /  15 km/h 9.3 mph /  15 km/h 48 % 0.0 in /  0 mm
17:18 9.7 °F /  -12.4 °C -0.8 °F /  -18.2 °C 1015.8 in /  34395 hPa WSW 9.3 mph /  15 km/h 9.3 mph /  15 km/h 48 % 0.0 in /  0 mm
17:20 9.7 °F /  -12.4 °C -0.8 °F /  -18.2 °C 1015.8 in /  34395 hPa WSW 9.3 mph /  15 km/h 9.3 mph /  15 km/h 48 % 0.0 in /  0 mm
17:23 9.6 °F /  -12.4 °C -0.9 °F /  -18.3 °C 1015.8 in /  34395 hPa WSW 7.4 mph /  11.9 km/h 7.4 mph /  11.9 km/h 48 % 0.0 in /  0 mm
17:25 9.6 °F /  -12.4 °C -0.9 °F /  -18.3 °C 1015.8 in /  34395 hPa WNW 7.4 mph /  11.9 km/h 7.4 mph /  11.9 km/h 48 % 0.0 in /  0 mm
17:28 9.5 °F /  -12.5 °C -1.0 °F /  -18.3 °C 1015.8 in /  34395 hPa West 11.1 mph /  17.9 km/h 11.1 mph /  17.9 km/h 48 % 0.0 in /  0 mm
17:30 9.4 °F /  -12.6 °C -1.1 °F /  -18.4 °C 1015.8 in /  34395 hPa WSW 9.3 mph /  15 km/h 9.3 mph /  15 km/h 48 % 0.0 in /  0 mm
17:32 9.4 °F /  -12.6 °C -1.1 °F /  -18.4 °C 1015.8 in /  34395 hPa SW 13.0 mph /  20.9 km/h 13.0 mph /  20.9 km/h 48 % 0.0 in /  0 mm
17:34 9.3 °F /  -12.6 °C -1.2 °F /  -18.4 °C 1015.8 in /  34395 hPa WSW 13.0 mph /  20.9 km/h 13.0 mph /  20.9 km/h 48 % 0.0 in /  0 mm
17:35 9.3 °F /  -12.6 °C -1.2 °F /  -18.4 °C 1015.8 in /  34395 hPa WSW 9.3 mph /  15 km/h 9.3 mph /  15 km/h 48 % 0.0 in /  0 mm
17:36 9.3 °F /  -12.6 °C -1.2 °F /  -18.4 °C 1015.8 in /  34395 hPa WNW 10.3 mph /  16.6 km/h 10.3 mph /  16.6 km/h 48 % 0.0 in /  0 mm
17:37 9.3 °F /  -12.6 °C -1.2 °F /  -18.4 °C 1015.8 in /  34395 hPa West 13.0 mph /  20.9 km/h 13.0 mph /  20.9 km/h 48 % 0.0 in /  0 mm
17:39 9.2 °F /  -12.7 °C -1.3 °F /  -18.5 °C 1015.8 in /  34395 hPa WNW 9.3 mph /  15 km/h 9.3 mph /  15 km/h 48 % 0.0 in /  0 mm
17:42 9.2 °F /  -12.7 °C -1.3 °F /  -18.5 °C 1015.8 in /  34395 hPa WSW 9.3 mph /  15 km/h 9.3 mph /  15 km/h 48 % 0.0 in /  0 mm
17:43 9.1 °F /  -12.7 °C -1.3 °F /  -18.5 °C 1015.8 in /  34395 hPa West 7.4 mph /  11.9 km/h 7.4 mph /  11.9 km/h 48 % 0.0 in /  0 mm
17:46 9.1 °F /  -12.7 °C -1.3 °F /  -18.5 °C 1015.8 in /  34395 hPa West 6.1 mph /  9.8 km/h 6.1 mph /  9.8 km/h 48 % 0.0 in /  0 mm
17:47 9.1 °F /  -12.7 °C -1.3 °F /  -18.5 °C 1015.8 in /  34395 hPa WSW 6.1 mph /  9.8 km/h 6.1 mph /  9.8 km/h 48 % 0.0 in /  0 mm
17:49 9.0 °F /  -12.8 °C -1.4 °F /  -18.6 °C 1015.8 in /  34395 hPa WSW 7.4 mph /  11.9 km/h 7.4 mph /  11.9 km/h 48 % 0.0 in /  0 mm
17:51 9.0 °F /  -12.8 °C -1.4 °F /  -18.6 °C 1015.8 in /  34395 hPa West 7.4 mph /  11.9 km/h 7.4 mph /  11.9 km/h 48 % 0.0 in /  0 mm
17:52 9.0 °F /  -12.8 °C -1.4 °F /  -18.6 °C 1015.8 in /  34395 hPa West 9.3 mph /  15 km/h 9.3 mph /  15 km/h 48 % 0.0 in /  0 mm
17:53 9.0 °F /  -12.8 °C -1.4 °F /  -18.6 °C 1015.8 in /  34395 hPa SW 9.3 mph /  15 km/h 9.3 mph /  15 km/h 48 % 0.0 in /  0 mm
17:54 8.9 °F /  -12.8 °C -1.6 °F /  -18.7 °C 1015.8 in /  34395 hPa WNW 7.4 mph /  11.9 km/h 7.4 mph /  11.9 km/h 48 % 0.0 in /  0 mm
17:55 8.9 °F /  -12.8 °C -1.5 °F /  -18.6 °C 1015.8 in /  34395 hPa West 4.8 mph /  7.7 km/h 9.7 mph /  15.6 km/h 48 % 0.0 in /  0 mm
17:56 8.9 °F /  -12.8 °C -1.6 °F /  -18.7 °C 1015.8 in /  34395 hPa WSW 9.3 mph /  15 km/h 9.3 mph /  15 km/h 48 % 0.0 in /  0 mm
17:58 8.9 °F /  -12.8 °C -1.6 °F /  -18.7 °C 1015.8 in /  34395 hPa WSW 7.4 mph /  11.9 km/h 7.4 mph /  11.9 km/h 48 % 0.0 in /  0 mm
17:59 8.9 °F /  -12.8 °C -1.6 °F /  -18.7 °C 1015.8 in /  34395 hPa WSW 9.3 mph /  15 km/h 9.3 mph /  15 km/h 48 % 0.0 in /  0 mm
18:00 8.9 °F /  -12.8 °C -1.6 °F /  -18.7 °C 1015.8 in /  34395 hPa WSW 4.8 mph /  7.7 km/h 9.7 mph /  15.6 km/h 48 % 0.0 in /  0 mm
18:05 8.7 °F /  -12.9 °C -1.7 °F /  -18.7 °C 1014.8 in /  34361.1 hPa West 5.8 mph /  9.3 km/h 5.8 mph /  9.3 km/h 48 % 0.0 in /  0 mm
18:06 8.7 °F /  -12.9 °C -1.7 °F /  -18.7 °C 1014.8 in /  34361.1 hPa West 11.1 mph /  17.9 km/h 11.1 mph /  17.9 km/h 48 % 0.0 in /  0 mm
18:07 8.7 °F /  -12.9 °C -1.7 °F /  -18.7 °C 1014.8 in /  34361.1 hPa West 11.1 mph /  17.9 km/h 11.1 mph /  17.9 km/h 48 % 0.0 in /  0 mm
18:08 8.7 °F /  -12.9 °C -1.7 °F /  -18.7 °C 1014.8 in /  34361.1 hPa WSW 13.0 mph /  20.9 km/h 13.0 mph /  20.9 km/h 48 % 0.0 in /  0 mm
18:09 8.7 °F /  -12.9 °C -1.7 °F /  -18.7 °C 1014.8 in /  34361.1 hPa West 13.0 mph /  20.9 km/h 13.0 mph /  20.9 km/h 48 % 0.0 in /  0 mm
18:11 8.7 °F /  -12.9 °C -1.4 °F /  -18.6 °C 1014.8 in /  34361.1 hPa WSW 5.6 mph /  9 km/h 6.4 mph /  10.3 km/h 49 % 0.0 in /  0 mm
18:13 8.6 °F /  -13 °C -1.5 °F /  -18.6 °C 1014.8 in /  34361.1 hPa West 9.3 mph /  15 km/h 9.3 mph /  15 km/h 49 % 0.0 in /  0 mm
18:14 8.6 °F /  -13 °C -1.8 °F /  -18.8 °C 1014.8 in /  34361.1 hPa West 9.3 mph /  15 km/h 9.3 mph /  15 km/h 48 % 0.0 in /  0 mm
18:15 8.6 °F /  -13 °C -1.5 °F /  -18.6 °C 1014.8 in /  34361.1 hPa WSW 9.3 mph /  15 km/h 9.3 mph /  15 km/h 49 % 0.0 in /  0 mm
18:16 8.6 °F /  -13 °C -1.5 °F /  -18.6 °C 1014.8 in /  34361.1 hPa WSW 9.3 mph /  15 km/h 9.3 mph /  15 km/h 49 % 0.0 in /  0 mm
18:20 8.6 °F /  -13 °C -1.5 °F /  -18.6 °C 1015.8 in /  34395 hPa WSW 9.3 mph /  15 km/h 9.3 mph /  15 km/h 49 % 0.0 in /  0 mm
18:22 8.6 °F /  -13 °C -1.5 °F /  -18.6 °C 1015.8 in /  34395 hPa WSW 9.3 mph /  15 km/h 9.3 mph /  15 km/h 49 % 0.0 in /  0 mm
18:27 8.6 °F /  -13 °C -1.5 °F /  -18.6 °C 1015.8 in /  34395 hPa WSW 11.1 mph /  17.9 km/h 11.1 mph /  17.9 km/h 49 % 0.0 in /  0 mm
18:49 8.5 °F /  -13.1 °C -1.6 °F /  -18.7 °C 1014.8 in /  34361.1 hPa WSW 3.9 mph /  6.3 km/h 3.9 mph /  6.3 km/h 49 % 0.0 in /  0 mm
18:50 8.5 °F /  -13.1 °C -1.6 °F /  -18.7 °C 1014.8 in /  34361.1 hPa WSW 3.2 mph /  5.1 km/h 9.7 mph /  15.6 km/h 49 % 0.0 in /  0 mm
18:52 8.4 °F /  -13.1 °C -1.7 °F /  -18.7 °C 1015.8 in /  34395 hPa SSW 16.7 mph /  26.9 km/h 16.7 mph /  26.9 km/h 49 % 0.0 in /  0 mm
18:53 8.4 °F /  -13.1 °C -1.7 °F /  -18.7 °C 1015.8 in /  34395 hPa WSW 5.6 mph /  9 km/h 5.6 mph /  9 km/h 49 % 0.0 in /  0 mm
18:54 8.4 °F /  -13.1 °C -1.7 °F /  -18.7 °C 1015.8 in /  34395 hPa WSW 3.7 mph /  6 km/h 3.7 mph /  6 km/h 49 % 0.0 in /  0 mm
18:59 8.3 °F /  -13.2 °C -1.8 °F /  -18.8 °C 1015.8 in /  34395 hPa WSW 5.6 mph /  9 km/h 5.6 mph /  9 km/h 49 % 0.0 in /  0 mm
19:07 8.0 °F /  -13.3 °C -1.8 °F /  -18.8 °C 1014.8 in /  34361.1 hPa WSW 3.9 mph /  6.3 km/h 3.9 mph /  6.3 km/h 50 % 0.0 in /  0 mm
19:09 8.0 °F /  -13.3 °C -1.8 °F /  -18.8 °C 1014.8 in /  34361.1 hPa SW 5.6 mph /  9 km/h 5.6 mph /  9 km/h 50 % 0.0 in /  0 mm
19:13 8.0 °F /  -13.3 °C -1.8 °F /  -18.8 °C 1014.8 in /  34361.1 hPa WSW 3.9 mph /  6.3 km/h 3.9 mph /  6.3 km/h 50 % 0.0 in /  0 mm
19:19 7.9 °F /  -13.4 °C -1.9 °F /  -18.8 °C 1014.8 in /  34361.1 hPa WSW 3.7 mph /  6 km/h 3.7 mph /  6 km/h 50 % 0.0 in /  0 mm
19:24 7.8 °F /  -13.4 °C -2.0 °F /  -18.9 °C 1015.8 in /  34395 hPa WSW 5.6 mph /  9 km/h 5.6 mph /  9 km/h 50 % 0.0 in /  0 mm
19:25 7.8 °F /  -13.4 °C -2.0 °F /  -18.9 °C 1015.8 in /  34395 hPa West 5.6 mph /  9 km/h 5.6 mph /  9 km/h 50 % 0.0 in /  0 mm
19:28 7.8 °F /  -13.4 °C -2.0 °F /  -18.9 °C 1015.8 in /  34395 hPa West 5.6 mph /  9 km/h 5.6 mph /  9 km/h 50 % 0.0 in /  0 mm
19:32 7.8 °F /  -13.4 °C -2.0 °F /  -18.9 °C 1015.8 in /  34395 hPa West 4.7 mph /  7.6 km/h 4.7 mph /  7.6 km/h 50 % 0.0 in /  0 mm
19:34 7.8 °F /  -13.4 °C -2.0 °F /  -18.9 °C 1015.8 in /  34395 hPa West 5.6 mph /  9 km/h 5.6 mph /  9 km/h 50 % 0.0 in /  0 mm
19:35 7.7 °F /  -13.5 °C -2.1 °F /  -18.9 °C 1015.8 in /  34395 hPa West 4.7 mph /  7.6 km/h 4.7 mph /  7.6 km/h 50 % 0.0 in /  0 mm
19:36 7.7 °F /  -13.5 °C -2.1 °F /  -18.9 °C 1015.8 in /  34395 hPa WSW 5.6 mph /  9 km/h 5.6 mph /  9 km/h 50 % 0.0 in /  0 mm
19:37 7.7 °F /  -13.5 °C -2.1 °F /  -18.9 °C 1015.8 in /  34395 hPa WSW 5.6 mph /  9 km/h 5.6 mph /  9 km/h 50 % 0.0 in /  0 mm
19:40 7.7 °F /  -13.5 °C -2.1 °F /  -18.9 °C 1015.8 in /  34395 hPa WSW 5.6 mph /  9 km/h 5.6 mph /  9 km/h 50 % 0.0 in /  0 mm
19:43 7.7 °F /  -13.5 °C -2.1 °F /  -18.9 °C 1015.8 in /  34395 hPa WSW 3.9 mph /  6.3 km/h 3.9 mph /  6.3 km/h 50 % 0.0 in /  0 mm
19:45 7.6 °F /  -13.6 °C -2.2 °F /  -19 °C 1015.8 in /  34395 hPa WSW 5.6 mph /  9 km/h 5.6 mph /  9 km/h 50 % 0.0 in /  0 mm
19:46 7.6 °F /  -13.6 °C -2.2 °F /  -19 °C 1015.8 in /  34395 hPa SW 3.9 mph /  6.3 km/h 3.9 mph /  6.3 km/h 50 % 0.0 in /  0 mm
19:52 7.3 °F /  -13.7 °C -2.4 °F /  -19.1 °C 1015.8 in /  34395 hPa WSW 3.9 mph /  6.3 km/h 3.9 mph /  6.3 km/h 50 % 0.0 in /  0 mm
19:58 7.2 °F /  -13.8 °C -2.3 °F /  -19.1 °C 1015.8 in /  34395 hPa West 1.9 mph /  3.1 km/h 1.9 mph /  3.1 km/h 51 % 0.0 in /  0 mm
20:02 7.1 °F /  -13.8 °C -2.4 °F /  -19.1 °C 1015.8 in /  34395 hPa WSW 3.7 mph /  6 km/h 3.7 mph /  6 km/h 51 % 0.0 in /  0 mm
20:07 7.1 °F /  -13.8 °C -2.4 °F /  -19.1 °C 1015.8 in /  34395 hPa SSW 5.8 mph /  9.3 km/h 5.8 mph /  9.3 km/h 51 % 0.0 in /  0 mm
20:12 7.2 °F /  -13.8 °C -2.3 °F /  -19.1 °C 1015.8 in /  34395 hPa WNW 5.6 mph /  9 km/h 5.6 mph /  9 km/h 51 % 0.0 in /  0 mm
20:17 7.3 °F /  -13.7 °C -2.2 °F /  -19 °C 1015.8 in /  34395 hPa West 4.2 mph /  6.8 km/h 4.2 mph /  6.8 km/h 51 % 0.0 in /  0 mm
20:22 7.4 °F /  -13.7 °C -2.1 °F /  -18.9 °C 1016.8 in /  34428.8 hPa WSW 7.4 mph /  11.9 km/h 7.4 mph /  11.9 km/h 51 % 0.0 in /  0 mm
Meteo Sesrovires
Elogis d' Weather Underground - 4.5 mb

Guio original per  Jim McMurry - jmcmurry@mwt.net Adaptat per a la plantilla per  Wim van der Kuil - Leuven-Template.eu

Trobareu la nostra informacio del temps tambe a:

Weather Underground

AWEKAS